Time;durP1;ratioP1;P1;durP2;ratioP2;P2;SDS_P1;SDS_P2;PMS_P1;PMS_P2;Temp;Humidity;BMP_temperature;BMP_pressure;BME280_temperature;BME280_humidity;BME280_pressure;Samples;Min_cycle;Max_cycle;Signal;HPM_P1;HPM_P2
2022/02/23 00:00:28;;;;;;;;;;;;;;;;;;1010459;29;950;-28
2022/02/23 00:00:58;;;;;;;;;;;;;;;;;;1010892;29;947;-28
2022/02/23 00:01:30;;;;;;;;;;;;;;;;;;1010486;29;784;-28
2022/02/23 00:02:00;;;;;;;;;;;;;;;;;;1010688;29;906;-28
2022/02/23 00:02:30;;;;;;;;;;;;;;;;;;1010501;29;1919;-28
2022/02/23 00:03:01;;;;;;;;;;;;;;;;;;1011398;29;856;-28
2022/02/23 00:03:31;;;;;;;;;;;;;;;;;;1010841;29;883;-27
2022/02/23 00:04:02;;;;;;;;;;;;;;;;;;1011127;29;871;-27
2022/02/23 00:04:33;;;;;;;;;;;;;;;;;;1011029;29;1001;-27
2022/02/23 00:05:03;;;;;;;;;;;;;;;;;;1010955;29;931;-27
2022/02/23 00:05:34;;;;;;;;;;;;;;;;;;1011128;29;880;-28
2022/02/23 00:06:04;;;;;;;;;;;;;;;;;;1011022;29;864;-27
2022/02/23 00:06:35;;;;;;;;;;;;;;;;;;1014780;29;1080;-27
2022/02/23 00:07:05;;;;;;;;;;;;;;;;;;1014849;29;950;-27
2022/02/23 00:07:35;;;;;;;;;;;;;;;;;;1014864;29;871;-27
2022/02/23 00:08:06;;;;;;;;;;;;;;;;;;1015140;29;967;-27
2022/02/23 00:08:36;;;;;;;;;;;;;;;;;;1014842;29;910;-28
2022/02/23 00:09:06;;;;;;;;;;;;;;;;;;1014986;29;943;-27
2022/02/23 00:09:37;;;;;;;;;;;;;;;;;;1014378;29;919;-27
2022/02/23 00:10:07;;;;;;;;;;;;;;;;;;1015064;29;1039;-27
2022/02/23 00:10:38;;;;;;;;;;;;;;;;;;1014732;29;853;-27
2022/02/23 00:11:09;;;;;;;;;;;;;;;;;;1015166;29;918;-27
2022/02/23 00:11:40;;;;;;;;;;;;;;;;;;1014723;29;990;-27
2022/02/23 00:12:10;;;;;;;;;;;;;;;;;;1015055;29;986;-27
2022/02/23 00:12:40;;;;;;;;;;;;;;;;;;1014953;29;1039;-28
2022/02/23 00:13:11;;;;;;;;;;;;;;;;;;1014797;29;776;-27
2022/02/23 00:13:41;;;;;;;;;;;;;;;;;;1015074;29;933;-27
2022/02/23 00:14:11;;;;;;;;;;;;;;;;;;1014640;29;947;-28
2022/02/23 00:14:42;;;;;;;;;;;;;;;;;;1015014;29;1316;-27
2022/02/23 00:15:12;;;;;;;;;;;;;;;;;;1014755;29;918;-28
2022/02/23 00:15:42;;;;;;;;;;;;;;;;;;1015040;29;911;-27
2022/02/23 00:16:13;;;;;;;;;;;;;;;;;;1014850;29;895;-27
2022/02/23 00:16:43;;;;;;;;;;;;;;;;;;1014710;29;791;-27
2022/02/23 00:17:14;;;;;;;;;;;;;;;;;;1014911;29;986;-27
2022/02/23 00:17:44;;;;;;;;;;;;;;;;;;1014622;29;1215;-27
2022/02/23 00:18:17;;;;;;;;;;;;;;;;;;1014935;29;1353;-27
2022/02/23 00:18:47;;;;;;;;;;;;;;;;;;1014671;29;901;-27
2022/02/23 00:19:18;;;;;;;;;;;;;;;;;;1014857;29;895;-27
2022/02/23 00:19:48;;;;;;;;;;;;;;;;;;1014308;29;1051;-27
2022/02/23 00:20:18;;;;;;;;;;;;;;;;;;1014808;29;935;-27
2022/02/23 00:20:49;;;;;;;;;;;;;;;;;;1014398;29;980;-27
2022/02/23 00:21:20;;;;;;;;;;;;;;;;;;1015041;29;894;-27
2022/02/23 00:21:50;;;;;;;;;;;;;;;;;;1014929;29;971;-27
2022/02/23 00:22:21;;;;;;;;;;;;;;;;;;1014781;29;899;-27
2022/02/23 00:22:51;;;;;;;;;;;;;;;;;;1014850;29;1910;-28
2022/02/23 00:23:22;;;;;;;;;;;;;;;;;;1014804;29;925;-27
2022/02/23 00:23:53;;;;;;;;;;;;;;;;;;1014856;29;1621;-27
2022/02/23 00:24:23;;;;;;;;;;;;;;;;;;1014604;29;929;-27
2022/02/23 00:24:54;;;;;;;;;;;;;;;;;;1014821;29;870;-27
2022/02/23 00:25:24;;;;;;;;;;;;;;;;;;1015184;29;950;-28
2022/02/23 00:25:54;;;;;;;;;;;;;;;;;;1014559;29;1390;-27
2022/02/23 00:26:25;;;;;;;;;;;;;;;;;;1015110;29;924;-27
2022/02/23 00:26:56;;;;;;;;;;;;;;;;;;1014700;29;992;-28
2022/02/23 00:27:26;;;;;;;;;;;;;;;;;;1014523;29;1251;-27
2022/02/23 00:27:57;;;;;;;;;;;;;;;;;;1014341;29;991;-27
2022/02/23 00:28:27;;;;;;;;;;;;;;;;;;1014554;29;816;-27
2022/02/23 00:28:57;;;;;;;;;;;;;;;;;;1014465;29;1056;-28
2022/02/23 00:29:28;;;;;;;;;;;;;;;;;;1014914;29;915;-27
2022/02/23 00:29:58;;;;;;;;;;;;;;;;;;1014979;29;884;-28
2022/02/23 00:30:28;;;;;;;;;;;;;;;;;;1014736;29;938;-28
2022/02/23 00:30:59;;;;;;;;;;;;;;;;;;1015515;29;1294;-27
2022/02/23 00:31:29;;;;;;;;;;;;;;;;;;1015123;29;989;-27
2022/02/23 00:32:00;;;;;;;;;;;;;;;;;;1015732;29;804;-27
2022/02/23 00:32:30;;;;;;;;;;;;;;;;;;1015367;29;979;-27
2022/02/23 00:33:01;;;;;;;;;;;;;;;;;;1015806;29;895;-28
2022/02/23 00:33:31;;;;;;;;;;;;;;;;;;1015666;29;1019;-27
2022/02/23 00:34:01;;;;;;;;;;;;;;;;;;1015582;29;898;-27
2022/02/23 00:34:32;;;;;;;;;;;;;;;;;;1015669;29;1024;-27
2022/02/23 00:35:02;;;;;;;;;;;;;;;;;;1015583;29;1158;-27
2022/02/23 00:35:33;;;;;;;;;;;;;;;;;;1015302;29;1407;-27
2022/02/23 00:36:03;;;;;;;;;;;;;;;;;;1015235;29;972;-28
2022/02/23 00:36:33;;;;;;;;;;;;;;;;;;1015178;29;785;-27
2022/02/23 00:37:04;;;;;;;;;;;;;;;;;;1015318;29;1048;-28
2022/02/23 00:37:34;;;;;;;;;;;;;;;;;;1015569;29;796;-27
2022/02/23 00:38:05;;;;;;;;;;;;;;;;;;1015346;29;1020;-27
2022/02/23 00:38:35;;;;;;;;;;;;;;;;;;1015097;29;922;-27
2022/02/23 00:39:05;;;;;;;;;;;;;;;;;;1015031;29;986;-27
2022/02/23 00:39:36;;;;;;;;;;;;;;;;;;1015115;29;796;-28
2022/02/23 00:40:06;;;;;;;;;;;;;;;;;;1015855;29;1155;-27
2022/02/23 00:40:37;;;;;;;;;;;;;;;;;;1015371;29;1008;-27
2022/02/23 00:41:07;;;;;;;;;;;;;;;;;;1015687;29;804;-27
2022/02/23 00:41:37;;;;;;;;;;;;;;;;;;1015649;29;854;-27
2022/02/23 00:42:08;;;;;;;;;;;;;;;;;;1015557;29;875;-27
2022/02/23 00:42:38;;;;;;;;;;;;;;;;;;1015586;29;1927;-27
2022/02/23 00:43:09;;;;;;;;;;;;;;;;;;1015407;29;843;-27
2022/02/23 00:43:39;;;;;;;;;;;;;;;;;;1015855;29;913;-27
2022/02/23 00:44:09;;;;;;;;;;;;;;;;;;1015456;29;971;-27
2022/02/23 00:44:40;;;;;;;;;;;;;;;;;;1015744;29;803;-27
2022/02/23 00:45:10;;;;;;;;;;;;;;;;;;1015492;29;931;-27
2022/02/23 00:45:41;;;;;;;;;;;;;;;;;;1015743;29;844;-27
2022/02/23 00:46:11;;;;;;;;;;;;;;;;;;1015548;29;1328;-27
2022/02/23 00:46:41;;;;;;;;;;;;;;;;;;1015225;29;807;-27
2022/02/23 00:47:12;;;;;;;;;;;;;;;;;;1015589;29;965;-28
2022/02/23 00:47:42;;;;;;;;;;;;;;;;;;1015477;29;823;-27
2022/02/23 00:48:12;;;;;;;;;;;;;;;;;;1015668;29;1004;-27
2022/02/23 00:48:43;;;;;;;;;;;;;;;;;;1015293;29;917;-28
2022/02/23 00:49:13;;;;;;;;;;;;;;;;;;1015840;29;855;-27
2022/02/23 00:49:44;;;;;;;;;;;;;;;;;;1015374;29;899;-28
2022/02/23 00:50:14;;;;;;;;;;;;;;;;;;1015607;29;858;-28
2022/02/23 00:50:44;;;;;;;;;;;;;;;;;;1015732;29;1053;-27
2022/02/23 00:51:15;;;;;;;;;;;;;;;;;;1015395;29;800;-27
2022/02/23 00:51:45;;;;;;;;;;;;;;;;;;1015810;29;1355;-27
2022/02/23 00:52:15;;;;;;;;;;;;;;;;;;1015398;29;962;-28
2022/02/23 00:52:46;;;;;;;;;;;;;;;;;;1015790;29;1076;-27
2022/02/23 00:53:16;;;;;;;;;;;;;;;;;;1015284;29;951;-27
2022/02/23 00:53:46;;;;;;;;;;;;;;;;;;1015436;29;832;-27
2022/02/23 00:54:18;;;;;;;;;;;;;;;;;;1015442;29;900;-27
2022/02/23 00:54:48;;;;;;;;;;;;;;;;;;1015621;29;926;-28
2022/02/23 00:55:18;;;;;;;;;;;;;;;;;;1015582;29;929;-27
2022/02/23 00:55:48;;;;;;;;;;;;;;;;;;1015544;29;871;-27
2022/02/23 00:56:19;;;;;;;;;;;;;;;;;;1015680;29;983;-27
2022/02/23 00:56:49;;;;;;;;;;;;;;;;;;1015487;29;796;-27
2022/02/23 00:57:20;;;;;;;;;;;;;;;;;;1015604;29;999;-27
2022/02/23 00:57:50;;;;;;;;;;;;;;;;;;1015295;29;947;-28
2022/02/23 00:58:20;;;;;;;;;;;;;;;;;;1015693;29;830;-28
2022/02/23 00:58:51;;;;;;;;;;;;;;;;;;1015512;29;1062;-27
2022/02/23 00:59:21;;;;;;;;;;;;;;;;;;1015586;29;906;-27
2022/02/23 00:59:51;;;;;;;;;;;;;;;;;;1015627;29;934;-27
2022/02/23 01:00:22;;;;;;;;;;;;;;;;;;1015376;29;981;-27
2022/02/23 01:00:52;;;;;;;;;;;;;;;;;;1015621;29;940;-27
2022/02/23 01:01:23;;;;;;;;;;;;;;;;;;1014996;29;892;-27
2022/02/23 01:01:53;;;;;;;;;;;;;;;;;;1015698;29;808;-27
2022/02/23 01:02:25;;;;;;;;;;;;;;;;;;1015495;29;917;-27
2022/02/23 01:02:55;;;;;;;;;;;;;;;;;;1015430;29;1915;-27
2022/02/23 01:03:26;;;;;;;;;;;;;;;;;;1015597;29;965;-27
2022/02/23 01:03:56;;;;;;;;;;;;;;;;;;1015474;29;868;-27
2022/02/23 01:04:27;;;;;;;;;;;;;;;;;;1015558;29;930;-27
2022/02/23 01:04:57;;;;;;;;;;;;;;;;;;1015504;29;808;-27
2022/02/23 01:05:27;;;;;;;;;;;;;;;;;;1015696;29;1015;-27
2022/02/23 01:05:58;;;;;;;;;;;;;;;;;;1015301;29;907;-27
2022/02/23 01:06:28;;;;;;;;;;;;;;;;;;1015660;29;1146;-28
2022/02/23 01:06:58;;;;;;;;;;;;;;;;;;1015443;29;994;-27
2022/02/23 01:07:29;;;;;;;;;;;;;;;;;;1015478;29;942;-27
2022/02/23 01:07:59;;;;;;;;;;;;;;;;;;1015609;29;908;-28
2022/02/23 01:08:29;;;;;;;;;;;;;;;;;;1015191;29;938;-27
2022/02/23 01:09:00;;;;;;;;;;;;;;;;;;1015520;29;1042;-28
2022/02/23 01:09:30;;;;;;;;;;;;;;;;;;1015251;29;954;-27
2022/02/23 01:10:02;;;;;;;;;;;;;;;;;;1015676;29;1026;-27
2022/02/23 01:10:32;;;;;;;;;;;;;;;;;;1015117;29;1297;-27
2022/02/23 01:11:03;;;;;;;;;;;;;;;;;;1015643;29;867;-28
2022/02/23 01:11:34;;;;;;;;;;;;;;;;;;1015492;29;863;-28
2022/02/23 01:12:04;;;;;;;;;;;;;;;;;;1015453;29;887;-28
2022/02/23 01:12:35;;;;;;;;;;;;;;;;;;1015578;29;953;-28
2022/02/23 01:13:05;;;;;;;;;;;;;;;;;;1015490;29;832;-27
2022/02/23 01:13:36;;;;;;;;;;;;;;;;;;1015607;29;953;-27
2022/02/23 01:14:07;;;;;;;;;;;;;;;;;;1015274;29;868;-27
2022/02/23 01:14:38;;;;;;;;;;;;;;;;;;1015744;29;859;-27
2022/02/23 01:15:08;;;;;;;;;;;;;;;;;;1015362;29;989;-27
2022/02/23 01:15:38;;;;;;;;;;;;;;;;;;1015600;29;875;-28
2022/02/23 01:16:09;;;;;;;;;;;;;;;;;;1015069;29;1013;-28
2022/02/23 01:16:39;;;;;;;;;;;;;;;;;;1015465;29;819;-27
2022/02/23 01:17:09;;;;;;;;;;;;;;;;;;1015577;29;1098;-27
2022/02/23 01:17:40;;;;;;;;;;;;;;;;;;1015248;29;1384;-28
2022/02/23 01:18:10;;;;;;;;;;;;;;;;;;1015450;29;944;-27
2022/02/23 01:18:41;;;;;;;;;;;;;;;;;;1015351;29;1078;-27
2022/02/23 01:19:11;;;;;;;;;;;;;;;;;;1015587;29;769;-27
2022/02/23 01:19:42;;;;;;;;;;;;;;;;;;1015629;29;1014;-27
2022/02/23 01:20:12;;;;;;;;;;;;;;;;;;1015252;29;934;-27
2022/02/23 01:20:42;;;;;;;;;;;;;;;;;;1015607;29;1136;-28
2022/02/23 01:21:13;;;;;;;;;;;;;;;;;;1015303;29;954;-27
2022/02/23 01:21:43;;;;;;;;;;;;;;;;;;1015679;29;1370;-27
2022/02/23 01:22:13;;;;;;;;;;;;;;;;;;1015169;29;966;-27
2022/02/23 01:22:44;;;;;;;;;;;;;;;;;;1015592;29;1907;-27
2022/02/23 01:23:15;;;;;;;;;;;;;;;;;;1015407;29;890;-27
2022/02/23 01:23:45;;;;;;;;;;;;;;;;;;1015289;29;1341;-27
2022/02/23 01:24:15;;;;;;;;;;;;;;;;;;1015358;29;926;-28
2022/02/23 01:24:45;;;;;;;;;;;;;;;;;;1015414;29;942;-27
2022/02/23 01:25:16;;;;;;;;;;;;;;;;;;1015483;29;1019;-27
2022/02/23 01:25:46;;;;;;;;;;;;;;;;;;1015448;29;859;-27
2022/02/23 01:26:17;;;;;;;;;;;;;;;;;;1015644;29;972;-27
2022/02/23 01:26:47;;;;;;;;;;;;;;;;;;1015129;29;868;-27
2022/02/23 01:27:17;;;;;;;;;;;;;;;;;;1015753;29;898;-27
2022/02/23 01:27:48;;;;;;;;;;;;;;;;;;1014956;29;1249;-27
2022/02/23 01:28:18;;;;;;;;;;;;;;;;;;1015547;29;887;-27
2022/02/23 01:28:49;;;;;;;;;;;;;;;;;;1015411;29;961;-27
2022/02/23 01:29:19;;;;;;;;;;;;;;;;;;1015381;29;994;-27
2022/02/23 01:29:49;;;;;;;;;;;;;;;;;;1015654;29;1015;-27
2022/02/23 01:30:20;;;;;;;;;;;;;;;;;;1015354;29;949;-27
2022/02/23 01:30:50;;;;;;;;;;;;;;;;;;1015067;29;1125;-27
2022/02/23 01:31:20;;;;;;;;;;;;;;;;;;1015323;29;1291;-27
2022/02/23 01:31:51;;;;;;;;;;;;;;;;;;1015635;29;796;-27
2022/02/23 01:32:21;;;;;;;;;;;;;;;;;;1015389;29;892;-27
2022/02/23 01:32:51;;;;;;;;;;;;;;;;;;1015507;29;764;-27
2022/02/23 01:33:22;;;;;;;;;;;;;;;;;;1015519;29;974;-27
2022/02/23 01:33:52;;;;;;;;;;;;;;;;;;1015275;29;891;-27
2022/02/23 01:34:23;;;;;;;;;;;;;;;;;;1015663;29;1067;-27
2022/02/23 01:34:53;;;;;;;;;;;;;;;;;;1015120;29;1178;-27
2022/02/23 01:35:24;;;;;;;;;;;;;;;;;;1015607;29;987;-27
2022/02/23 01:35:54;;;;;;;;;;;;;;;;;;1015155;29;917;-27
2022/02/23 01:36:24;;;;;;;;;;;;;;;;;;1015649;29;813;-27
2022/02/23 01:36:55;;;;;;;;;;;;;;;;;;1015390;29;969;-28
2022/02/23 01:37:25;;;;;;;;;;;;;;;;;;1015248;29;863;-27
2022/02/23 01:37:55;;;;;;;;;;;;;;;;;;1015096;29;1022;-27
2022/02/23 01:38:27;;;;;;;;;;;;;;;;;;1014587;29;859;-27
2022/02/23 01:38:58;;;;;;;;;;;;;;;;;;1015236;29;964;-28
2022/02/23 01:39:28;;;;;;;;;;;;;;;;;;1014808;29;1043;-27
2022/02/23 01:39:58;;;;;;;;;;;;;;;;;;1015577;29;943;-28
2022/02/23 01:40:29;;;;;;;;;;;;;;;;;;1015232;29;1025;-27
2022/02/23 01:41:01;;;;;;;;;;;;;;;;;;1015507;29;1400;-27
2022/02/23 01:41:31;;;;;;;;;;;;;;;;;;1015454;29;889;-27
2022/02/23 01:42:02;;;;;;;;;;;;;;;;;;1015191;29;820;-27
2022/02/23 01:42:32;;;;;;;;;;;;;;;;;;1014752;29;1965;-27
2022/02/23 01:43:03;;;;;;;;;;;;;;;;;;1015108;29;973;-27
2022/02/23 01:43:33;;;;;;;;;;;;;;;;;;1015534;29;1028;-28
2022/02/23 01:44:03;;;;;;;;;;;;;;;;;;1015253;29;865;-27
2022/02/23 01:44:34;;;;;;;;;;;;;;;;;;1015516;29;883;-28
2022/02/23 01:45:04;;;;;;;;;;;;;;;;;;1015418;29;954;-27
2022/02/23 01:45:35;;;;;;;;;;;;;;;;;;1015069;29;842;-27
2022/02/23 01:46:06;;;;;;;;;;;;;;;;;;1015584;29;967;-27
2022/02/23 01:46:36;;;;;;;;;;;;;;;;;;1015270;29;784;-28
2022/02/23 01:47:07;;;;;;;;;;;;;;;;;;1015475;29;1094;-27
2022/02/23 01:47:37;;;;;;;;;;;;;;;;;;1015084;29;833;-28
2022/02/23 01:48:08;;;;;;;;;;;;;;;;;;1015489;29;887;-27
2022/02/23 01:48:38;;;;;;;;;;;;;;;;;;1015365;29;953;-27
2022/02/23 01:49:08;;;;;;;;;;;;;;;;;;1015319;29;808;-28
2022/02/23 01:49:39;;;;;;;;;;;;;;;;;;1015654;29;1090;-28
2022/02/23 01:50:09;;;;;;;;;;;;;;;;;;1015243;29;950;-27
2022/02/23 01:50:41;;;;;;;;;;;;;;;;;;1015479;29;972;-27
2022/02/23 01:51:11;;;;;;;;;;;;;;;;;;1015216;29;776;-27
2022/02/23 01:51:42;;;;;;;;;;;;;;;;;;1015519;29;954;-27
2022/02/23 01:52:12;;;;;;;;;;;;;;;;;;1014979;29;986;-27
2022/02/23 01:52:43;;;;;;;;;;;;;;;;;;1015738;29;956;-28
2022/02/23 01:53:14;;;;;;;;;;;;;;;;;;1014848;29;1015;-28
2022/02/23 01:53:44;;;;;;;;;;;;;;;;;;1015552;29;973;-27
2022/02/23 01:54:15;;;;;;;;;;;;;;;;;;1015181;29;1701;-28
2022/02/23 01:54:45;;;;;;;;;;;;;;;;;;1015315;29;927;-27
2022/02/23 01:55:16;;;;;;;;;;;;;;;;;;1015432;29;995;-27
2022/02/23 01:55:46;;;;;;;;;;;;;;;;;;1015120;29;950;-28
2022/02/23 01:56:16;;;;;;;;;;;;;;;;;;1015447;29;990;-27
2022/02/23 01:56:47;;;;;;;;;;;;;;;;;;1015300;29;1035;-27
2022/02/23 01:57:17;;;;;;;;;;;;;;;;;;1015423;29;892;-27
2022/02/23 01:57:47;;;;;;;;;;;;;;;;;;1015269;29;995;-27
2022/02/23 01:58:18;;;;;;;;;;;;;;;;;;1015198;29;920;-27
2022/02/23 01:58:48;;;;;;;;;;;;;;;;;;1015448;29;1632;-27
2022/02/23 01:59:18;;;;;;;;;;;;;;;;;;1015289;29;935;-27
2022/02/23 01:59:49;;;;;;;;;;;;;;;;;;1015381;29;1170;-27
2022/02/23 02:00:19;;;;;;;;;;;;;;;;;;1014902;29;940;-27
2022/02/23 02:00:50;;;;;;;;;;;;;;;;;;1015403;29;966;-27
2022/02/23 02:01:20;;;;;;;;;;;;;;;;;;1015186;29;974;-27
2022/02/23 02:01:54;;;;;;;;;;;;;;;;;;1015561;29;963;-27
2022/02/23 02:02:26;;;;;;;;;;;;;;;;;;1015145;29;941;-27
2022/02/23 02:02:56;;;;;;;;;;;;;;;;;;1014952;29;1903;-27
2022/02/23 02:03:27;;;;;;;;;;;;;;;;;;1015066;29;912;-27
2022/02/23 02:03:57;;;;;;;;;;;;;;;;;;1014798;29;1047;-27
2022/02/23 02:04:27;;;;;;;;;;;;;;;;;;1015028;29;871;-28
2022/02/23 02:04:58;;;;;;;;;;;;;;;;;;1015221;29;835;-27
2022/02/23 02:05:28;;;;;;;;;;;;;;;;;;1015391;29;780;-27
2022/02/23 02:05:58;;;;;;;;;;;;;;;;;;1015483;29;915;-27
2022/02/23 02:06:29;;;;;;;;;;;;;;;;;;1015030;29;1070;-27
2022/02/23 02:06:59;;;;;;;;;;;;;;;;;;1015446;29;1319;-27
2022/02/23 02:07:29;;;;;;;;;;;;;;;;;;1015027;29;947;-28
2022/02/23 02:08:00;;;;;;;;;;;;;;;;;;1015193;29;958;-27
2022/02/23 02:08:30;;;;;;;;;;;;;;;;;;1015120;29;974;-27
2022/02/23 02:09:00;;;;;;;;;;;;;;;;;;1015439;29;804;-27
2022/02/23 02:09:31;;;;;;;;;;;;;;;;;;1015209;29;919;-27
2022/02/23 02:10:02;;;;;;;;;;;;;;;;;;1015360;29;903;-27
2022/02/23 02:10:32;;;;;;;;;;;;;;;;;;1015237;29;1303;-27
2022/02/23 02:11:03;;;;;;;;;;;;;;;;;;1015204;29;974;-27
2022/02/23 02:11:33;;;;;;;;;;;;;;;;;;1015387;29;1373;-27
2022/02/23 02:12:04;;;;;;;;;;;;;;;;;;1015179;29;955;-27
2022/02/23 02:12:34;;;;;;;;;;;;;;;;;;1015523;29;1402;-27
2022/02/23 02:13:05;;;;;;;;;;;;;;;;;;1015101;29;897;-27
2022/02/23 02:13:35;;;;;;;;;;;;;;;;;;1015388;29;800;-27
2022/02/23 02:14:06;;;;;;;;;;;;;;;;;;1015267;29;1051;-27
2022/02/23 02:14:36;;;;;;;;;;;;;;;;;;1015153;29;990;-27
2022/02/23 02:15:07;;;;;;;;;;;;;;;;;;1015247;29;938;-27
2022/02/23 02:15:38;;;;;;;;;;;;;;;;;;1014518;29;654;-27
2022/02/23 02:16:08;;;;;;;;;;;;;;;;;;1015108;29;977;-27
2022/02/23 02:16:38;;;;;;;;;;;;;;;;;;1014648;29;919;-27
2022/02/23 02:17:09;;;;;;;;;;;;;;;;;;1015053;29;1080;-27
2022/02/23 02:17:41;;;;;;;;;;;;;;;;;;1015042;29;1250;-27
2022/02/23 02:18:11;;;;;;;;;;;;;;;;;;1015312;29;827;-27
2022/02/23 02:18:42;;;;;;;;;;;;;;;;;;1015310;29;927;-27
2022/02/23 02:19:12;;;;;;;;;;;;;;;;;;1015245;29;816;-27
2022/02/23 02:19:42;;;;;;;;;;;;;;;;;;1015276;29;974;-27
2022/02/23 02:20:13;;;;;;;;;;;;;;;;;;1015208;29;987;-27
2022/02/23 02:20:43;;;;;;;;;;;;;;;;;;1015350;29;819;-27
2022/02/23 02:21:13;;;;;;;;;;;;;;;;;;1015189;29;948;-27
2022/02/23 02:21:51;;;;;;;;;;;;;;;;;;1015295;29;872;-27
2022/02/23 02:22:21;;;;;;;;;;;;;;;;;;1015312;29;1023;-27
2022/02/23 02:22:52;;;;;;;;;;;;;;;;;;1014683;29;1907;-27
2022/02/23 02:23:22;;;;;;;;;;;;;;;;;;1015337;29;949;-27
2022/02/23 02:23:52;;;;;;;;;;;;;;;;;;1015037;29;919;-27
2022/02/23 02:24:26;;;;;;;;;;;;;;;;;;1015458;29;800;-27
2022/02/23 02:24:56;;;;;;;;;;;;;;;;;;1015160;29;968;-27
2022/02/23 02:25:28;;;;;;;;;;;;;;;;;;1015084;29;935;-27
2022/02/23 02:25:58;;;;;;;;;;;;;;;;;;1015395;29;1007;-27
2022/02/23 02:26:28;;;;;;;;;;;;;;;;;;1015008;29;1362;-27
2022/02/23 02:26:59;;;;;;;;;;;;;;;;;;1015416;29;996;-27
2022/02/23 02:27:29;;;;;;;;;;;;;;;;;;1014677;29;1030;-27
2022/02/23 02:28:00;;;;;;;;;;;;;;;;;;1015411;29;812;-27
2022/02/23 02:28:30;;;;;;;;;;;;;;;;;;1015240;29;896;-27
2022/02/23 02:29:00;;;;;;;;;;;;;;;;;;1015273;29;895;-27
2022/02/23 02:29:31;;;;;;;;;;;;;;;;;;1015314;29;907;-27
2022/02/23 02:30:03;;;;;;;;;;;;;;;;;;1014734;29;955;-28
2022/02/23 02:30:33;;;;;;;;;;;;;;;;;;1015380;29;966;-27
2022/02/23 02:31:04;;;;;;;;;;;;;;;;;;1015114;29;911;-27
2022/02/23 02:31:34;;;;;;;;;;;;;;;;;;1015311;29;915;-27
2022/02/23 02:32:05;;;;;;;;;;;;;;;;;;1015018;29;1031;-27
2022/02/23 02:32:35;;;;;;;;;;;;;;;;;;1015370;29;974;-27
2022/02/23 02:33:05;;;;;;;;;;;;;;;;;;1014727;29;1000;-27
2022/02/23 02:33:36;;;;;;;;;;;;;;;;;;1014913;29;975;-27
2022/02/23 02:34:06;;;;;;;;;;;;;;;;;;1014712;29;1292;-27
2022/02/23 02:34:37;;;;;;;;;;;;;;;;;;1014674;29;1543;-27
2022/02/23 02:35:07;;;;;;;;;;;;;;;;;;1015340;29;927;-27
2022/02/23 02:35:38;;;;;;;;;;;;;;;;;;1015002;29;820;-27
2022/02/23 02:36:09;;;;;;;;;;;;;;;;;;1015475;29;808;-27
2022/02/23 02:36:39;;;;;;;;;;;;;;;;;;1014883;29;1515;-27
2022/02/23 02:37:10;;;;;;;;;;;;;;;;;;1015364;29;935;-27
2022/02/23 02:37:40;;;;;;;;;;;;;;;;;;1014437;29;943;-28
2022/02/23 02:38:11;;;;;;;;;;;;;;;;;;1014743;29;888;-27
2022/02/23 02:38:42;;;;;;;;;;;;;;;;;;1014920;29;1025;-27
2022/02/23 02:39:12;;;;;;;;;;;;;;;;;;1014809;29;937;-27
2022/02/23 02:39:43;;;;;;;;;;;;;;;;;;1015221;29;975;-28
2022/02/23 02:40:13;;;;;;;;;;;;;;;;;;1014957;29;1386;-27
2022/02/23 02:40:44;;;;;;;;;;;;;;;;;;1015204;29;1394;-27
2022/02/23 02:41:14;;;;;;;;;;;;;;;;;;1015232;29;942;-27
2022/02/23 02:41:45;;;;;;;;;;;;;;;;;;1015196;29;811;-27
2022/02/23 02:42:18;;;;;;;;;;;;;;;;;;1015150;29;958;-27
2022/02/23 02:42:48;;;;;;;;;;;;;;;;;;1014954;29;1970;-28
2022/02/23 02:43:18;;;;;;;;;;;;;;;;;;1015377;29;1113;-27
2022/02/23 02:43:49;;;;;;;;;;;;;;;;;;1015056;29;902;-28
2022/02/23 02:44:19;;;;;;;;;;;;;;;;;;1015303;29;780;-28
2022/02/23 02:44:50;;;;;;;;;;;;;;;;;;1014671;29;918;-27
2022/02/23 02:45:21;;;;;;;;;;;;;;;;;;1015288;29;1269;-27
2022/02/23 02:45:51;;;;;;;;;;;;;;;;;;1015245;29;864;-27
2022/02/23 02:46:22;;;;;;;;;;;;;;;;;;1014760;29;990;-28
2022/02/23 02:46:53;;;;;;;;;;;;;;;;;;1015418;29;903;-27
2022/02/23 02:47:24;;;;;;;;;;;;;;;;;;1014824;29;1003;-28
2022/02/23 02:47:54;;;;;;;;;;;;;;;;;;1015463;29;899;-27
2022/02/23 02:48:25;;;;;;;;;;;;;;;;;;1014921;29;997;-28
2022/02/23 02:48:55;;;;;;;;;;;;;;;;;;1015182;29;1371;-28
2022/02/23 02:49:25;;;;;;;;;;;;;;;;;;1015143;29;874;-28
2022/02/23 02:49:56;;;;;;;;;;;;;;;;;;1015088;29;843;-28
2022/02/23 02:50:26;;;;;;;;;;;;;;;;;;1015198;29;958;-28
2022/02/23 02:50:57;;;;;;;;;;;;;;;;;;1014578;29;1136;-28
2022/02/23 02:51:27;;;;;;;;;;;;;;;;;;1014862;29;934;-28
2022/02/23 02:51:58;;;;;;;;;;;;;;;;;;1014659;29;890;-28
2022/02/23 02:52:28;;;;;;;;;;;;;;;;;;1014526;29;899;-27
2022/02/23 02:52:59;;;;;;;;;;;;;;;;;;1014845;29;1437;-28
2022/02/23 02:53:29;;;;;;;;;;;;;;;;;;1015355;29;991;-28
2022/02/23 02:53:59;;;;;;;;;;;;;;;;;;1014807;29;867;-27
2022/02/23 02:54:30;;;;;;;;;;;;;;;;;;1015037;29;1669;-28
2022/02/23 02:55:00;;;;;;;;;;;;;;;;;;1015181;29;1051;-27
2022/02/23 02:55:31;;;;;;;;;;;;;;;;;;1014957;29;877;-27
2022/02/23 02:56:01;;;;;;;;;;;;;;;;;;1015333;29;962;-27
2022/02/23 02:56:32;;;;;;;;;;;;;;;;;;1014813;29;919;-28
2022/02/23 02:57:03;;;;;;;;;;;;;;;;;;1015210;29;926;-27
2022/02/23 02:57:33;;;;;;;;;;;;;;;;;;1015095;29;1004;-27
2022/02/23 02:58:04;;;;;;;;;;;;;;;;;;1015056;29;862;-27
2022/02/23 02:58:34;;;;;;;;;;;;;;;;;;1015256;29;951;-27
2022/02/23 02:59:05;;;;;;;;;;;;;;;;;;1014887;29;808;-27
2022/02/23 02:59:35;;;;;;;;;;;;;;;;;;1014939;29;1067;-28
2022/02/23 03:00:07;;;;;;;;;;;;;;;;;;1014895;29;1114;-28
2022/02/23 03:00:37;;;;;;;;;;;;;;;;;;1015185;29;946;-28
2022/02/23 03:01:07;;;;;;;;;;;;;;;;;;1014897;29;1025;-27
2022/02/23 03:01:38;;;;;;;;;;;;;;;;;;1015261;29;1367;-27
2022/02/23 03:02:08;;;;;;;;;;;;;;;;;;1015047;29;1006;-28
2022/02/23 03:02:38;;;;;;;;;;;;;;;;;;1015011;29;1979;-27
2022/02/23 03:03:09;;;;;;;;;;;;;;;;;;1015090;29;1010;-27
2022/02/23 03:03:39;;;;;;;;;;;;;;;;;;1014996;29;919;-27
2022/02/23 03:04:10;;;;;;;;;;;;;;;;;;1015284;29;988;-27
2022/02/23 03:04:40;;;;;;;;;;;;;;;;;;1014705;29;1013;-27
2022/02/23 03:05:10;;;;;;;;;;;;;;;;;;1015320;29;955;-27
2022/02/23 03:05:41;;;;;;;;;;;;;;;;;;1014965;29;897;-27
2022/02/23 03:06:11;;;;;;;;;;;;;;;;;;1015159;29;847;-28
2022/02/23 03:06:41;;;;;;;;;;;;;;;;;;1015117;29;863;-28
2022/02/23 03:07:12;;;;;;;;;;;;;;;;;;1014589;29;1041;-27
2022/02/23 03:07:42;;;;;;;;;;;;;;;;;;1015027;29;1007;-27
2022/02/23 03:08:12;;;;;;;;;;;;;;;;;;1014979;29;1025;-27
2022/02/23 03:08:43;;;;;;;;;;;;;;;;;;1015198;29;963;-27
2022/02/23 03:09:14;;;;;;;;;;;;;;;;;;1015000;29;1484;-27
2022/02/23 03:09:44;;;;;;;;;;;;;;;;;;1015026;29;899;-27
2022/02/23 03:10:14;;;;;;;;;;;;;;;;;;1015105;29;966;-27
2022/02/23 03:10:45;;;;;;;;;;;;;;;;;;1015005;29;891;-27
2022/02/23 03:11:15;;;;;;;;;;;;;;;;;;1015196;29;825;-27
2022/02/23 03:11:46;;;;;;;;;;;;;;;;;;1014897;29;1744;-27
2022/02/23 03:12:16;;;;;;;;;;;;;;;;;;1015212;29;872;-27
2022/02/23 03:12:46;;;;;;;;;;;;;;;;;;1014818;29;962;-27
2022/02/23 03:13:17;;;;;;;;;;;;;;;;;;1015412;29;800;-27
2022/02/23 03:13:47;;;;;;;;;;;;;;;;;;1014693;29;963;-27
2022/02/23 03:14:17;;;;;;;;;;;;;;;;;;1015255;29;796;-27
2022/02/23 03:14:48;;;;;;;;;;;;;;;;;;1014752;29;1614;-28
2022/02/23 03:15:18;;;;;;;;;;;;;;;;;;1015148;29;879;-27
2022/02/23 03:15:48;;;;;;;;;;;;;;;;;;1015073;29;996;-27
2022/02/23 03:16:19;;;;;;;;;;;;;;;;;;1014864;29;895;-28
2022/02/23 03:16:49;;;;;;;;;;;;;;;;;;1015194;29;1040;-28
2022/02/23 03:17:20;;;;;;;;;;;;;;;;;;1014853;29;916;-27
2022/02/23 03:17:50;;;;;;;;;;;;;;;;;;1015044;29;1258;-27
2022/02/23 03:18:20;;;;;;;;;;;;;;;;;;1014537;29;911;-27
2022/02/23 03:18:51;;;;;;;;;;;;;;;;;;1014801;29;875;-28
2022/02/23 03:19:21;;;;;;;;;;;;;;;;;;1014724;29;1078;-27
2022/02/23 03:19:51;;;;;;;;;;;;;;;;;;1014717;29;994;-27
2022/02/23 03:20:22;;;;;;;;;;;;;;;;;;1014967;29;893;-27
2022/02/23 03:20:52;;;;;;;;;;;;;;;;;;1014903;29;918;-27
2022/02/23 03:21:22;;;;;;;;;;;;;;;;;;1015271;29;1059;-27
2022/02/23 03:21:53;;;;;;;;;;;;;;;;;;1013996;29;844;-27
2022/02/23 03:22:23;;;;;;;;;;;;;;;;;;1014802;29;938;-27
2022/02/23 03:22:53;;;;;;;;;;;;;;;;;;1014362;29;1911;-27
2022/02/23 03:23:24;;;;;;;;;;;;;;;;;;1014843;29;804;-27
2022/02/23 03:23:54;;;;;;;;;;;;;;;;;;1015113;29;975;-28
2022/02/23 03:24:24;;;;;;;;;;;;;;;;;;1014749;29;855;-27
2022/02/23 03:24:55;;;;;;;;;;;;;;;;;;1015284;29;889;-27
2022/02/23 03:25:25;;;;;;;;;;;;;;;;;;1014800;29;1009;-27
2022/02/23 03:25:56;;;;;;;;;;;;;;;;;;1015157;29;1095;-27
2022/02/23 03:26:26;;;;;;;;;;;;;;;;;;1014847;29;885;-28
2022/02/23 03:26:57;;;;;;;;;;;;;;;;;;1015152;29;860;-28
2022/02/23 03:27:27;;;;;;;;;;;;;;;;;;1014824;29;1058;-27
2022/02/23 03:27:57;;;;;;;;;;;;;;;;;;1015042;29;883;-27
2022/02/23 03:28:29;;;;;;;;;;;;;;;;;;1015027;29;941;-27
2022/02/23 03:28:59;;;;;;;;;;;;;;;;;;1014876;29;862;-27
2022/02/23 03:29:29;;;;;;;;;;;;;;;;;;1014890;29;950;-27
2022/02/23 03:29:59;;;;;;;;;;;;;;;;;;1014825;29;1040;-28
2022/02/23 03:30:30;;;;;;;;;;;;;;;;;;1015178;29;911;-27
2022/02/23 03:31:00;;;;;;;;;;;;;;;;;;1014704;29;1060;-28
2022/02/23 03:31:31;;;;;;;;;;;;;;;;;;1015325;29;962;-27
2022/02/23 03:32:01;;;;;;;;;;;;;;;;;;1014883;29;903;-27
2022/02/23 03:32:32;;;;;;;;;;;;;;;;;;1015028;29;901;-27
2022/02/23 03:33:02;;;;;;;;;;;;;;;;;;1015148;29;1046;-27
2022/02/23 03:33:33;;;;;;;;;;;;;;;;;;1014906;29;898;-27
2022/02/23 03:34:03;;;;;;;;;;;;;;;;;;1015183;29;932;-27
2022/02/23 03:34:33;;;;;;;;;;;;;;;;;;1014868;29;1046;-27